createdAt,value
2023-05-04T00:01:16.377Z,10.75
2023-05-04T00:05:21.995Z,10.70
2023-05-04T00:09:27.356Z,10.63
2023-05-04T00:13:30.725Z,10.59
2023-05-04T00:17:34.384Z,10.55
2023-05-04T00:21:39.199Z,10.50
2023-05-04T00:25:42.500Z,10.48
2023-05-04T00:29:46.508Z,10.45
2023-05-04T00:33:49.705Z,10.45
2023-05-04T00:37:54.579Z,10.45
2023-05-04T00:41:57.820Z,10.42
2023-05-04T00:46:01.427Z,10.38
2023-05-04T00:50:07.000Z,10.31
2023-05-04T00:54:13.263Z,10.28
2023-05-04T00:58:17.154Z,10.24
2023-05-04T01:02:21.920Z,10.21
2023-05-04T01:06:38.022Z,10.17
2023-05-04T01:10:48.941Z,10.11
2023-05-04T01:14:54.419Z,10.02
2023-05-04T01:18:57.991Z,9.94
2023-05-04T01:23:03.749Z,9.87
2023-05-04T01:27:13.663Z,9.82
2023-05-04T01:31:20.845Z,9.80
2023-05-04T01:35:24.564Z,9.79
2023-05-04T01:39:30.154Z,9.79
2023-05-04T01:43:34.031Z,9.78
2023-05-04T01:47:37.435Z,9.78
2023-05-04T01:51:42.191Z,9.77
2023-05-04T01:55:49.126Z,9.77
2023-05-04T01:59:52.940Z,9.76
2023-05-04T02:03:56.585Z,9.75
2023-05-04T02:08:00.220Z,9.74
2023-05-04T02:12:05.047Z,9.74
2023-05-04T02:16:11.710Z,9.70
2023-05-04T02:20:15.339Z,9.67
2023-05-04T02:24:19.024Z,9.65
2023-05-04T02:28:23.653Z,9.62
2023-05-04T02:32:28.139Z,9.59
2023-05-04T02:36:31.699Z,9.57
2023-05-04T02:40:35.210Z,9.52
2023-05-04T02:44:40.194Z,9.50
2023-05-04T02:48:43.609Z,9.46
2023-05-04T02:52:46.847Z,9.42
2023-05-04T02:56:50.480Z,9.37
2023-05-04T03:00:57.409Z,9.34
2023-05-04T03:05:00.928Z,9.27
2023-05-04T03:09:05.007Z,9.23
2023-05-04T03:13:08.828Z,9.18
2023-05-04T03:17:13.891Z,9.15
2023-05-04T03:21:17.475Z,9.11
2023-05-04T03:25:20.824Z,9.08
2023-05-04T03:29:27.600Z,9.05
2023-05-04T03:33:32.106Z,9.05
2023-05-04T03:37:35.926Z,9.02
2023-05-04T03:41:39.069Z,9.02
2023-05-04T03:45:42.610Z,9.01
2023-05-04T03:49:47.798Z,9.02
2023-05-04T03:53:51.254Z,9.02
2023-05-04T03:57:54.472Z,9.05
2023-05-04T04:01:57.809Z,9.10
2023-05-04T04:06:03.607Z,9.17
2023-05-04T04:10:08.126Z,9.23
2023-05-04T04:14:11.360Z,9.29
2023-05-04T04:18:14.915Z,9.32
2023-05-04T04:22:19.771Z,9.38
2023-05-04T04:26:23.654Z,9.43
2023-05-04T04:30:26.758Z,9.49
2023-05-04T04:34:30.354Z,9.54
2023-05-04T04:38:35.028Z,9.60
2023-05-04T04:42:38.895Z,9.67
2023-05-04T04:46:44.776Z,9.76
2023-05-04T04:50:49.353Z,9.83
2023-05-04T04:54:54.224Z,9.93
2023-05-04T04:58:58.964Z,10.02
2023-05-04T05:03:03.273Z,10.10
2023-05-04T05:07:08.878Z,10.19
2023-05-04T05:11:13.511Z,10.30
2023-05-04T05:15:17.630Z,10.38
2023-05-04T05:19:23.152Z,10.47
2023-05-04T05:23:28.081Z,10.56
2023-05-04T05:27:37.429Z,10.66
2023-05-04T05:31:41.559Z,10.77
2023-05-04T05:35:45.008Z,10.88
2023-05-04T05:39:49.838Z,11.00
2023-05-04T05:43:55.020Z,11.14
2023-05-04T05:47:59.354Z,11.27
2023-05-04T05:52:02.946Z,11.40
2023-05-04T05:56:06.772Z,11.52
2023-05-04T06:00:13.349Z,11.65
2023-05-04T06:04:17.122Z,11.77
2023-05-04T06:08:20.609Z,11.91
2023-05-04T06:12:23.962Z,12.06
2023-05-04T06:16:29.920Z,12.18
2023-05-04T06:20:33.405Z,12.33
2023-05-04T06:24:36.977Z,12.50
2023-05-04T06:28:41.267Z,12.69
2023-05-04T06:32:47.466Z,12.92
2023-05-04T06:36:51.459Z,13.18
2023-05-04T06:40:55.133Z,13.47
2023-05-04T06:45:01.531Z,13.78
2023-05-04T06:49:07.313Z,14.16
2023-05-04T06:53:12.807Z,14.55
2023-05-04T06:57:16.404Z,15.06
2023-05-04T07:01:19.869Z,15.67
2023-05-04T07:05:25.233Z,16.32
2023-05-04T07:09:30.235Z,16.94
2023-05-04T07:13:33.933Z,17.59
2023-05-04T07:17:38.466Z,18.16
2023-05-04T07:21:43.157Z,18.76
2023-05-04T07:25:46.423Z,19.27
2023-05-04T07:29:51.502Z,19.82
2023-05-04T07:33:55.013Z,20.36
2023-05-04T07:37:59.860Z,20.88
2023-05-04T07:42:04.151Z,21.31
2023-05-04T07:46:08.066Z,21.72
2023-05-04T07:50:12.479Z,22.07
2023-05-04T07:54:18.919Z,22.41
2023-05-04T07:58:23.604Z,22.66
2023-05-04T08:02:26.707Z,22.90
2023-05-04T08:06:30.683Z,23.12
2023-05-04T08:10:37.701Z,23.39
2023-05-04T08:14:41.307Z,23.66
2023-05-04T08:18:45.503Z,23.87
2023-05-04T08:22:49.220Z,24.06
2023-05-04T08:27:04.243Z,24.28
2023-05-04T08:31:11.626Z,24.52
2023-05-04T08:35:15.535Z,24.71
2023-05-04T08:39:20.877Z,24.90
2023-05-04T08:43:27.474Z,25.06
2023-05-04T08:47:31.222Z,25.16
2023-05-04T08:51:37.487Z,25.27
2023-05-04T08:55:45.353Z,25.32
2023-05-04T08:59:52.612Z,25.36
2023-05-04T09:03:56.217Z,25.43
2023-05-04T09:07:59.627Z,25.52
2023-05-04T09:12:03.236Z,25.60
2023-05-04T09:16:14.033Z,25.72
2023-05-04T09:20:17.974Z,25.83
2023-05-04T09:24:31.931Z,26.02
2023-05-04T09:28:37.546Z,26.19
2023-05-04T09:32:49.039Z,26.39
2023-05-04T09:37:02.686Z,26.52
2023-05-04T09:41:06.744Z,26.60
2023-05-04T09:45:11.377Z,26.55
2023-05-04T09:49:16.430Z,26.59
2023-05-04T09:53:23.828Z,26.64
2023-05-04T09:57:28.592Z,26.67
2023-05-04T10:01:32.497Z,26.64
2023-05-04T10:05:40.510Z,26.66
2023-05-04T10:09:44.278Z,26.72
2023-05-04T10:13:48.285Z,26.83
2023-05-04T10:18:10.612Z,27.00
2023-05-04T10:22:40.185Z,27.13
2023-05-04T10:26:59.931Z,27.24
2023-05-04T10:31:04.756Z,27.35
2023-05-04T10:35:09.374Z,27.49
2023-05-04T10:39:24.941Z,27.59
2023-05-04T10:43:30.535Z,27.62
2023-05-04T10:47:36.193Z,27.76
2023-05-04T10:51:49.010Z,27.84
2023-05-04T10:55:54.653Z,27.85
2023-05-04T10:59:59.642Z,27.81
2023-05-04T11:04:03.561Z,27.77
2023-05-04T11:08:17.591Z,27.84
2023-05-04T11:12:23.022Z,27.88
2023-05-04T11:16:27.519Z,27.92
2023-05-04T11:20:31.141Z,27.95
2023-05-04T11:24:45.207Z,28.02
2023-05-04T11:28:51.326Z,28.10
2023-05-04T11:32:57.666Z,28.18
2023-05-04T11:37:03.039Z,28.20
2023-05-04T11:41:06.378Z,28.11
2023-05-04T11:45:21.944Z,28.07
2023-05-04T11:49:27.171Z,27.98
2023-05-04T11:53:39.424Z,27.92
2023-05-04T11:57:43.102Z,27.86
2023-05-04T12:01:48.152Z,27.89
2023-05-04T12:05:53.073Z,27.94
2023-05-04T12:09:56.491Z,27.97
2023-05-04T12:14:05.381Z,28.02
2023-05-04T12:18:22.822Z,28.06
2023-05-04T12:22:30.426Z,28.15
2023-05-04T12:26:34.862Z,28.21
2023-05-04T12:30:38.480Z,28.28
2023-05-04T12:34:43.397Z,28.39
2023-05-04T12:38:47.056Z,28.48
2023-05-04T12:42:51.043Z,28.53
2023-05-04T12:46:56.043Z,28.54
2023-05-04T12:51:02.218Z,28.47
2023-05-04T12:55:07.177Z,28.27
2023-05-04T12:59:10.561Z,28.10
2023-05-04T13:03:15.258Z,28.00
2023-05-04T13:07:20.634Z,28.03
2023-05-04T13:11:25.350Z,28.09
2023-05-04T13:15:29.279Z,28.22
2023-05-04T13:19:33.245Z,28.30
2023-05-04T13:23:38.175Z,28.32
2023-05-04T13:27:43.589Z,28.32
2023-05-04T13:31:47.163Z,28.34
2023-05-04T13:35:50.604Z,28.46
2023-05-04T13:39:55.396Z,28.56
2023-05-04T13:43:58.827Z,28.66
2023-05-04T13:48:04.706Z,28.71
2023-05-04T13:52:08.668Z,28.75
2023-05-04T13:56:13.932Z,28.74
2023-05-04T14:00:19.222Z,28.70
2023-05-04T14:04:23.456Z,28.66
2023-05-04T14:08:27.574Z,28.56
2023-05-04T14:12:32.311Z,28.49
2023-05-04T14:16:37.484Z,28.49
2023-05-04T14:20:41.393Z,28.57
2023-05-04T14:24:46.687Z,28.63
2023-05-04T14:28:51.989Z,28.68
2023-05-04T14:32:56.161Z,28.71
2023-05-04T14:37:00.122Z,28.78
2023-05-04T14:41:04.261Z,28.81
2023-05-04T14:45:12.670Z,28.88
2023-05-04T14:49:34.869Z,28.84
2023-05-04T14:53:41.264Z,28.89
2023-05-04T14:57:46.658Z,28.89
2023-05-04T15:01:52.411Z,28.91
2023-05-04T15:05:56.525Z,28.77
2023-05-04T15:10:00.412Z,28.67
2023-05-04T15:14:03.596Z,28.49
2023-05-04T15:18:09.065Z,28.26
2023-05-04T15:22:12.534Z,28.05
2023-05-04T15:26:16.636Z,27.75
2023-05-04T15:30:20.781Z,27.46
2023-05-04T15:34:26.020Z,27.25
2023-05-04T15:38:29.447Z,27.11
2023-05-04T15:42:36.773Z,27.02
2023-05-04T15:46:40.144Z,26.86
2023-05-04T15:50:45.688Z,26.75
2023-05-04T15:54:49.190Z,26.61
2023-05-04T15:58:53.162Z,26.45
2023-05-04T16:02:56.906Z,26.35
2023-05-04T16:07:02.656Z,26.27
2023-05-04T16:11:07.806Z,26.19
2023-05-04T16:15:12.535Z,26.11
2023-05-04T16:19:15.666Z,26.06
2023-05-04T16:23:21.499Z,26.00
2023-05-04T16:27:26.890Z,25.95
2023-05-04T16:31:31.076Z,25.87
2023-05-04T16:35:36.967Z,25.73
2023-05-04T16:39:41.197Z,25.54
2023-05-04T16:43:44.954Z,25.25
2023-05-04T16:47:48.480Z,24.95
2023-05-04T16:51:53.844Z,24.65
2023-05-04T16:55:58.274Z,24.36
2023-05-04T17:00:01.664Z,24.05
2023-05-04T17:04:05.009Z,23.81
2023-05-04T17:08:09.753Z,23.52
2023-05-04T17:12:15.268Z,23.26
2023-05-04T17:16:19.688Z,23.05
2023-05-04T17:20:25.211Z,22.88
2023-05-04T17:24:29.114Z,22.71
2023-05-04T17:28:33.675Z,22.55
2023-05-04T17:32:37.768Z,22.32
2023-05-04T17:36:40.977Z,22.10
2023-05-04T17:40:48.286Z,21.85
2023-05-04T17:44:53.061Z,21.60
2023-05-04T17:48:58.661Z,21.30
2023-05-04T17:53:01.987Z,21.01
2023-05-04T17:57:06.847Z,20.71
2023-05-04T18:01:11.745Z,20.42
2023-05-04T18:05:17.950Z,20.13
2023-05-04T18:09:21.151Z,19.82
2023-05-04T18:13:24.933Z,19.55
2023-05-04T18:17:30.573Z,19.29
2023-05-04T18:21:36.391Z,19.04
2023-05-04T18:25:40.556Z,18.79
2023-05-04T18:29:44.109Z,18.55
2023-05-04T18:33:49.687Z,18.33
2023-05-04T18:37:52.831Z,18.10
2023-05-04T18:41:56.563Z,17.91
2023-05-04T18:46:00.581Z,17.72
2023-05-04T18:50:06.675Z,17.54
2023-05-04T18:54:11.020Z,17.35
2023-05-04T18:58:14.673Z,17.20
2023-05-04T19:02:18.523Z,17.05
2023-05-04T19:06:23.824Z,16.91
2023-05-04T19:10:27.117Z,16.80
2023-05-04T19:14:32.749Z,16.70
2023-05-04T19:18:36.502Z,16.62
2023-05-04T19:22:42.290Z,16.58
2023-05-04T19:26:45.978Z,16.54
2023-05-04T19:30:51.992Z,16.51
2023-05-04T19:34:56.361Z,16.47
2023-05-04T19:39:01.684Z,16.46
2023-05-04T19:43:06.651Z,16.45
2023-05-04T19:47:10.400Z,16.44
2023-05-04T19:51:17.757Z,16.45
2023-05-04T19:55:23.292Z,16.45
2023-05-04T19:59:27.068Z,16.40
2023-05-04T20:03:30.638Z,16.43
2023-05-04T20:07:34.027Z,16.41
2023-05-04T20:11:40.104Z,16.35
2023-05-04T20:15:43.567Z,16.27
2023-05-04T20:19:47.818Z,16.15
2023-05-04T20:23:51.129Z,16.01
2023-05-04T20:27:56.765Z,15.87
2023-05-04T20:32:02.086Z,15.72
2023-05-04T20:36:07.349Z,15.56
2023-05-04T20:40:12.518Z,15.41
2023-05-04T20:44:17.342Z,15.30
2023-05-04T20:48:20.545Z,15.19
2023-05-04T20:52:24.783Z,15.10
2023-05-04T20:56:29.104Z,15.04
2023-05-04T21:00:34.081Z,14.98
2023-05-04T21:04:37.738Z,14.97
2023-05-04T21:08:41.913Z,14.95
2023-05-04T21:12:45.297Z,14.93
2023-05-04T21:16:50.438Z,14.87
2023-05-04T21:20:53.575Z,14.80
2023-05-04T21:24:57.713Z,14.78
2023-05-04T21:29:01.570Z,14.73
2023-05-04T21:33:07.113Z,14.69
2023-05-04T21:37:10.378Z,14.61
2023-05-04T21:41:15.331Z,14.59
2023-05-04T21:45:18.873Z,14.54
2023-05-04T21:49:24.188Z,14.49
2023-05-04T21:53:27.597Z,14.43
2023-05-04T21:57:34.084Z,14.38
2023-05-04T22:01:37.234Z,14.34
2023-05-04T22:05:42.638Z,14.27
2023-05-04T22:09:45.992Z,14.15
2023-05-04T22:13:50.107Z,14.07
2023-05-04T22:17:53.363Z,13.90
2023-05-04T22:21:58.339Z,13.84
2023-05-04T22:26:01.961Z,13.71
2023-05-04T22:30:06.114Z,13.61
2023-05-04T22:34:10.157Z,13.49
2023-05-04T22:38:15.602Z,13.40
2023-05-04T22:42:18.827Z,13.29
2023-05-04T22:46:22.562Z,13.23
2023-05-04T22:50:26.520Z,13.13
2023-05-04T22:54:32.134Z,13.04
2023-05-04T22:58:35.128Z,12.96
2023-05-04T23:02:38.682Z,12.92
2023-05-04T23:06:42.322Z,12.90
2023-05-04T23:10:50.097Z,12.88
2023-05-04T23:14:54.719Z,12.86
2023-05-04T23:18:59.102Z,12.85
2023-05-04T23:23:02.306Z,12.83
2023-05-04T23:27:07.665Z,12.76
2023-05-04T23:31:11.548Z,12.79
2023-05-04T23:35:15.717Z,12.76
2023-05-04T23:39:19.038Z,12.76
2023-05-04T23:43:24.823Z,12.75
2023-05-04T23:47:28.414Z,12.76
2023-05-04T23:51:33.590Z,12.85
2023-05-04T23:55:36.885Z,12.94
2023-05-04T23:59:42.889Z,13.01
